Time;durP1;ratioP1;P1;durP2;ratioP2;P2;SDS_P1;SDS_P2;PMS_P1;PMS_P2;Temp;Humidity;BMP_temperature;BMP_pressure;BME280_temperature;BME280_humidity;BME280_pressure;Samples;Min_cycle;Max_cycle;Signal;HPM_P1;HPM_P2
2021/10/07 00:00:58;;;;;;;7.82;5.63;;;10.50;99.90;;;;;;5075434;28;20199;-68
2021/10/07 00:03:24;;;;;;;14.35;6.55;;;10.50;99.90;;;;;;5074883;28;20212;-69
2021/10/07 00:05:50;;;;;;;10.50;5.55;;;10.50;99.90;;;;;;5074973;28;20192;-69
2021/10/07 00:08:17;;;;;;;20.83;6.90;;;10.50;99.90;;;;;;5074915;28;20200;-69
2021/10/07 00:10:43;;;;;;;9.70;6.20;;;10.50;99.90;;;;;;5074654;28;20207;-69
2021/10/07 00:13:09;;;;;;;14.38;6.00;;;10.50;99.90;;;;;;5074859;28;20188;-69
2021/10/07 00:15:36;;;;;;;9.40;5.75;;;10.50;99.90;;;;;;5075102;28;20654;-69
2021/10/07 00:18:02;;;;;;;8.52;5.43;;;10.50;99.90;;;;;;5074557;28;20227;-68
2021/10/07 00:20:28;;;;;;;6.20;5.60;;;10.50;99.90;;;;;;5074965;28;20203;-68
2021/10/07 00:22:55;;;;;;;8.80;5.72;;;10.50;99.90;;;;;;5074677;28;20200;-69
2021/10/07 00:25:21;;;;;;;6.65;5.47;;;10.50;99.90;;;;;;5074536;28;20196;-68
2021/10/07 00:27:47;;;;;;;11.60;5.55;;;10.40;99.90;;;;;;5074907;28;20216;-69
2021/10/07 00:30:21;;;;;;;15.52;6.20;;;10.40;99.90;;;;;;5074070;28;20571;-69
2021/10/07 00:40:51;;;;;;;9.18;5.80;;;10.30;99.90;;;;;;5074707;28;20176;-68
2021/10/07 00:43:17;;;;;;;9.20;5.22;;;10.30;99.90;;;;;;5074494;28;20554;-68
2021/10/07 00:45:55;;;;;;;9.75;6.72;;;10.20;99.90;;;;;;5074231;28;20192;-69
2021/10/07 00:48:22;;;;;;;6.35;4.85;;;10.20;99.90;;;;;;5074243;28;20569;-68
2021/10/07 00:50:49;;;;;;;9.55;5.97;;;10.20;99.90;;;;;;5074446;28;20204;-69
2021/10/07 00:53:18;;;;;;;9.40;6.13;;;10.20;99.90;;;;;;5074120;28;20210;-69
2021/10/07 00:55:45;;;;;;;11.30;5.60;;;10.30;99.90;;;;;;5073947;28;20693;-68
2021/10/07 00:58:14;;;;;;;7.93;6.10;;;10.20;99.90;;;;;;5073543;28;20220;-69
2021/10/07 01:00:42;;;;;;;13.88;6.15;;;10.20;99.90;;;;;;5074586;28;20204;-66
2021/10/07 01:03:08;;;;;;;7.53;6.35;;;10.20;99.90;;;;;;5074416;28;20203;-66
2021/10/07 01:05:35;;;;;;;13.20;7.40;;;10.20;99.90;;;;;;5074036;28;20204;-67
2021/10/07 01:08:02;;;;;;;6.63;6.03;;;10.20;99.90;;;;;;5074097;28;20651;-66
2021/10/07 01:10:28;;;;;;;9.85;5.88;;;10.20;99.90;;;;;;5073872;28;20576;-66
2021/10/07 01:12:54;;;;;;;7.88;6.45;;;10.30;99.90;;;;;;5073924;28;20286;-66
2021/10/07 01:15:21;;;;;;;6.97;6.00;;;10.20;99.90;;;;;;5074059;28;20203;-66
2021/10/07 01:17:47;;;;;;;11.48;5.95;;;10.20;99.90;;;;;;5073673;28;20243;-66
2021/10/07 01:20:14;;;;;;;12.43;6.15;;;10.20;99.90;;;;;;5073903;28;20196;-66
2021/10/07 01:22:40;;;;;;;9.60;6.95;;;10.20;99.90;;;;;;5073979;28;20208;-66
2021/10/07 01:25:07;;;;;;;12.52;6.40;;;10.20;99.90;;;;;;5074164;28;20537;-66
2021/10/07 01:27:37;;;;;;;10.82;6.63;;;10.20;99.90;;;;;;5073732;28;20188;-66
2021/10/07 01:30:10;;;;;;;7.15;5.35;;;10.20;99.90;;;;;;5073892;28;20204;-66
2021/10/07 01:32:38;;;;;;;7.75;6.07;;;10.20;99.90;;;;;;5072195;28;20212;-66
2021/10/07 01:35:07;;;;;;;12.27;6.45;;;10.30;99.90;;;;;;5072325;28;20192;-67
2021/10/07 01:37:34;;;;;;;8.95;5.95;;;10.20;99.90;;;;;;5073500;28;20200;-66
2021/10/07 01:40:02;;;;;;;14.48;6.65;;;10.30;99.90;;;;;;5073890;28;20648;-68
2021/10/07 01:42:29;;;;;;;8.98;5.45;;;10.30;99.90;;;;;;5072972;28;20188;-66
2021/10/07 01:44:56;;;;;;;8.82;5.28;;;10.30;99.90;;;;;;5073367;28;20211;-68
2021/10/07 01:47:25;;;;;;;12.57;5.72;;;10.30;99.90;;;;;;5073327;28;20212;-66
2021/10/07 01:49:58;;;;;;;5.78;5.28;;;10.30;99.90;;;;;;5073379;28;20591;-66
2021/10/07 01:52:25;;;;;;;14.93;6.50;;;10.30;99.90;;;;;;5073900;28;20200;-67
2021/10/07 01:54:51;;;;;;;8.18;5.40;;;10.30;99.90;;;;;;5072594;28;20635;-67
2021/10/07 01:57:17;;;;;;;10.73;6.38;;;10.30;99.90;;;;;;5073577;28;20200;-67
2021/10/07 01:59:44;;;;;;;11.85;5.75;;;10.30;99.90;;;;;;5073353;28;20252;-67
2021/10/07 02:02:10;;;;;;;9.27;5.68;;;10.30;99.90;;;;;;5073297;28;20204;-67
2021/10/07 02:04:38;;;;;;;9.00;5.72;;;10.30;99.90;;;;;;5073163;28;20226;-67
2021/10/07 02:07:05;;;;;;;6.07;5.47;;;10.30;99.90;;;;;;5073453;28;20199;-66
2021/10/07 02:09:31;;;;;;;8.32;6.38;;;10.30;99.90;;;;;;5073365;28;20203;-67
2021/10/07 02:11:57;;;;;;;6.28;5.60;;;10.40;99.90;;;;;;5073310;28;20192;-66
2021/10/07 02:14:26;;;;;;;6.47;5.85;;;10.40;99.90;;;;;;5073011;28;20184;-66
2021/10/07 02:16:52;;;;;;;6.45;5.82;;;10.40;99.90;;;;;;5072850;28;20231;-66
2021/10/07 02:19:20;;;;;;;9.07;6.40;;;10.40;99.90;;;;;;5072997;28;20226;-67
2021/10/07 02:21:46;;;;;;;9.77;6.05;;;10.40;99.90;;;;;;5073347;28;20605;-66
2021/10/07 02:24:13;;;;;;;6.07;5.50;;;10.40;99.90;;;;;;5073196;28;20204;-66
2021/10/07 02:26:39;;;;;;;6.10;5.50;;;10.40;99.90;;;;;;5073002;28;20188;-66
2021/10/07 02:29:06;;;;;;;6.60;5.43;;;10.40;99.90;;;;;;5073153;28;20215;-66
2021/10/07 02:31:33;;;;;;;12.82;7.25;;;10.50;99.90;;;;;;5072904;28;20634;-66
2021/10/07 02:33:59;;;;;;;6.18;5.57;;;10.50;99.90;;;;;;5073043;28;20200;-66
2021/10/07 02:36:26;;;;;;;9.70;6.72;;;10.40;99.90;;;;;;5072912;28;20276;-66
2021/10/07 02:38:53;;;;;;;9.45;5.90;;;10.40;99.90;;;;;;5073324;28;20285;-66
2021/10/07 02:41:19;;;;;;;7.28;5.65;;;10.50;99.90;;;;;;5073210;28;20287;-67
2021/10/07 02:43:45;;;;;;;9.93;5.55;;;10.50;99.90;;;;;;5073100;28;20203;-66
2021/10/07 02:46:12;;;;;;;10.63;6.63;;;10.50;99.90;;;;;;5073072;28;20560;-66
2021/10/07 02:48:39;;;;;;;10.57;5.45;;;10.50;99.90;;;;;;5072712;28;20220;-66
2021/10/07 02:51:05;;;;;;;9.20;5.45;;;10.50;99.90;;;;;;5073160;28;20581;-67
2021/10/07 02:53:32;;;;;;;8.27;5.65;;;10.50;99.90;;;;;;5075927;28;20203;-66
2021/10/07 02:55:59;;;;;;;8.68;6.15;;;10.50;99.90;;;;;;5075608;28;20644;-66
2021/10/07 02:58:25;;;;;;;7.65;5.85;;;10.50;99.90;;;;;;5076250;28;20231;-66
2021/10/07 03:00:52;;;;;;;5.60;5.10;;;10.50;99.90;;;;;;5076305;28;20188;-66
2021/10/07 03:03:18;;;;;;;6.72;6.00;;;10.50;99.90;;;;;;5074588;28;20737;-66
2021/10/07 03:05:44;;;;;;;10.70;6.70;;;10.50;99.90;;;;;;5075844;28;20203;-67
2021/10/07 03:08:10;;;;;;;10.95;6.20;;;10.50;99.90;;;;;;5075830;28;20576;-67
2021/10/07 03:10:37;;;;;;;7.88;5.82;;;10.50;99.90;;;;;;5075930;28;20200;-66
2021/10/07 03:13:03;;;;;;;13.70;6.55;;;10.50;99.90;;;;;;5075462;28;20196;-67
2021/10/07 03:15:30;;;;;;;13.45;6.35;;;10.50;99.90;;;;;;5075559;28;20189;-67
2021/10/07 03:17:56;;;;;;;14.73;7.70;;;10.50;99.90;;;;;;5076235;28;20315;-66
2021/10/07 03:20:24;;;;;;;11.50;7.35;;;10.50;99.90;;;;;;5076146;28;20188;-66
2021/10/07 03:22:50;;;;;;;9.65;6.20;;;10.50;99.90;;;;;;5076152;28;20663;-66
2021/10/07 03:25:17;;;;;;;8.18;6.45;;;10.50;99.90;;;;;;5076334;28;20215;-67
2021/10/07 03:27:45;;;;;;;7.78;7.00;;;10.50;99.90;;;;;;5075829;28;20195;-66
2021/10/07 03:30:12;;;;;;;8.85;7.00;;;10.40;99.90;;;;;;5075876;28;20644;-66
2021/10/07 03:32:38;;;;;;;11.50;6.88;;;10.40;99.90;;;;;;5074145;28;20196;-65
2021/10/07 03:35:05;;;;;;;15.73;6.47;;;10.40;99.90;;;;;;5075976;28;20200;-66
2021/10/07 03:37:32;;;;;;;7.85;6.93;;;10.40;99.90;;;;;;5075883;28;20203;-66
2021/10/07 03:39:58;;;;;;;10.95;7.53;;;10.40;99.90;;;;;;5075541;28;20627;-67
2021/10/07 03:42:25;;;;;;;10.38;7.63;;;10.40;99.90;;;;;;5075571;28;20188;-67
2021/10/07 03:44:54;;;;;;;11.70;8.05;;;10.40;99.90;;;;;;5075412;28;20200;-66
2021/10/07 03:47:20;;;;;;;11.35;7.70;;;10.40;99.90;;;;;;5075466;28;20550;-66
2021/10/07 03:49:46;;;;;;;9.10;7.90;;;10.40;99.90;;;;;;5075798;28;20207;-66
2021/10/07 03:52:13;;;;;;;16.20;7.95;;;10.40;99.90;;;;;;5075472;28;20192;-66
2021/10/07 03:54:40;;;;;;;16.70;8.38;;;10.40;99.90;;;;;;5075330;28;20192;-66
2021/10/07 03:57:07;;;;;;;10.75;7.93;;;10.40;99.90;;;;;;5075453;28;20196;-66
2021/10/07 03:59:33;;;;;;;11.57;8.52;;;10.40;99.90;;;;;;5075296;28;20223;-65
2021/10/07 04:01:59;;;;;;;9.88;8.57;;;10.40;99.90;;;;;;5074046;28;20316;-65
2021/10/07 04:04:26;;;;;;;16.00;8.55;;;10.40;99.90;;;;;;5074487;28;20184;-66
2021/10/07 04:06:52;;;;;;;15.93;8.23;;;10.40;99.90;;;;;;5075002;28;20192;-66
2021/10/07 04:09:18;;;;;;;11.88;8.80;;;10.40;99.90;;;;;;5075079;28;20200;-67
2021/10/07 04:11:45;;;;;;;10.45;9.20;;;10.40;99.90;;;;;;5073763;28;20195;-66
2021/10/07 04:14:11;;;;;;;13.27;8.75;;;10.40;99.90;;;;;;5074110;28;20274;-67
2021/10/07 04:16:37;;;;;;;12.05;8.93;;;10.40;99.90;;;;;;5074658;28;20196;-67
2021/10/07 04:19:04;;;;;;;16.42;9.52;;;10.40;99.90;;;;;;5074944;28;20214;-67
2021/10/07 04:21:30;;;;;;;11.52;9.13;;;10.40;99.90;;;;;;5075545;28;20203;-67
2021/10/07 04:23:56;;;;;;;13.43;9.65;;;10.40;99.90;;;;;;5075470;28;20662;-67
2021/10/07 04:26:23;;;;;;;9.40;8.43;;;10.40;99.90;;;;;;5074904;28;20206;-67
2021/10/07 04:28:49;;;;;;;11.35;9.48;;;10.50;99.90;;;;;;5074292;28;20250;-67
2021/10/07 04:31:16;;;;;;;17.70;9.60;;;10.50;99.90;;;;;;5074673;28;20673;-66
2021/10/07 04:33:42;;;;;;;9.27;8.43;;;10.50;99.90;;;;;;5074362;28;20676;-67
2021/10/07 04:36:08;;;;;;;10.07;8.98;;;10.50;99.90;;;;;;5074706;28;20203;-65
2021/10/07 04:38:35;;;;;;;21.27;10.02;;;10.40;99.90;;;;;;5074400;28;20238;-65
2021/10/07 04:41:01;;;;;;;12.75;9.38;;;10.40;99.90;;;;;;5074367;28;20217;-64
2021/10/07 04:43:27;;;;;;;8.90;8.02;;;10.40;99.90;;;;;;5074480;28;20195;-65
2021/10/07 04:45:56;;;;;;;14.20;9.57;;;10.40;99.90;;;;;;5074260;28;20206;-64
2021/10/07 04:48:22;;;;;;;13.25;9.68;;;10.30;99.90;;;;;;5074510;28;20692;-64
2021/10/07 04:50:48;;;;;;;14.75;10.30;;;10.30;99.90;;;;;;5074517;28;20184;-65
2021/10/07 04:53:15;;;;;;;12.18;9.40;;;10.30;99.90;;;;;;5074373;28;20196;-65
2021/10/07 04:55:41;;;;;;;19.67;11.23;;;10.40;99.90;;;;;;5074209;28;20192;-65
2021/10/07 04:58:08;;;;;;;13.52;9.75;;;10.30;99.90;;;;;;5074195;28;20192;-65
2021/10/07 05:00:34;;;;;;;12.98;10.60;;;10.30;99.90;;;;;;5074167;28;20196;-65
2021/10/07 05:03:00;;;;;;;14.90;10.52;;;10.40;99.90;;;;;;5073815;28;20674;-65
2021/10/07 05:05:27;;;;;;;14.93;10.00;;;10.40;99.90;;;;;;5074379;28;20196;-65
2021/10/07 05:07:53;;;;;;;15.63;10.18;;;10.40;99.90;;;;;;5073889;28;20196;-65
2021/10/07 05:10:19;;;;;;;14.82;9.85;;;10.40;99.90;;;;;;5073921;28;20282;-65
2021/10/07 05:12:49;;;;;;;15.63;11.10;;;10.30;99.90;;;;;;5073919;28;20223;-65
2021/10/07 05:15:15;;;;;;;11.57;9.75;;;10.30;99.90;;;;;;5073322;28;20211;-65
2021/10/07 05:17:41;;;;;;;15.07;12.27;;;10.30;99.90;;;;;;5073249;28;20703;-65
2021/10/07 05:20:08;;;;;;;16.17;10.23;;;10.30;99.90;;;;;;5072408;28;20227;-66
2021/10/07 05:22:36;;;;;;;14.20;10.90;;;10.30;99.90;;;;;;5073997;28;20199;-65
2021/10/07 05:25:03;;;;;;;12.00;10.25;;;10.40;99.90;;;;;;5073532;28;20196;-66
2021/10/07 05:27:29;;;;;;;12.65;10.98;;;10.40;99.90;;;;;;5074200;28;20652;-65
2021/10/07 05:29:58;;;;;;;21.27;9.88;;;10.40;99.90;;;;;;5073780;28;20282;-67
2021/10/07 05:32:25;;;;;;;13.15;10.10;;;10.40;99.90;;;;;;5073054;28;21257;-66
2021/10/07 05:34:51;;;;;;;11.55;10.35;;;10.40;99.90;;;;;;5072418;28;20199;-66
2021/10/07 05:37:17;;;;;;;12.60;10.00;;;10.40;99.90;;;;;;5073844;28;20196;-66
2021/10/07 05:39:44;;;;;;;13.70;9.70;;;10.50;99.90;;;;;;5073252;28;20231;-66
2021/10/07 05:42:11;;;;;;;18.17;9.90;;;10.40;99.90;;;;;;5073323;28;20574;-66
2021/10/07 05:44:37;;;;;;;11.63;10.35;;;10.40;99.90;;;;;;5073685;28;20204;-66
2021/10/07 05:47:04;;;;;;;13.00;9.85;;;10.40;99.90;;;;;;5073380;28;20220;-67
2021/10/07 05:49:33;;;;;;;11.82;10.25;;;10.50;99.90;;;;;;5073416;28;20206;-66
2021/10/07 05:52:00;;;;;;;11.35;9.55;;;10.50;99.90;;;;;;5073403;28;20192;-67
2021/10/07 05:54:27;;;;;;;11.50;9.43;;;10.50;99.90;;;;;;5073523;28;20200;-67
2021/10/07 05:56:53;;;;;;;12.60;9.43;;;10.40;99.90;;;;;;5073141;28;20204;-67
2021/10/07 05:59:19;;;;;;;10.43;8.35;;;10.40;99.90;;;;;;5073625;28;20227;-67
2021/10/07 06:01:45;;;;;;;20.65;10.18;;;10.40;99.90;;;;;;5073620;28;20208;-67
2021/10/07 06:04:12;;;;;;;13.93;9.60;;;10.50;99.90;;;;;;5073607;28;20689;-67
2021/10/07 06:06:38;;;;;;;11.93;10.57;;;10.50;99.90;;;;;;5073552;28;20717;-67
2021/10/07 06:09:07;;;;;;;12.68;8.70;;;10.50;99.90;;;;;;5073485;28;20579;-67
2021/10/07 06:11:36;;;;;;;13.48;8.65;;;10.50;99.90;;;;;;5073209;28;20212;-67
2021/10/07 06:14:03;;;;;;;11.85;10.60;;;10.50;99.90;;;;;;5073056;28;20200;-66
2021/10/07 06:16:32;;;;;;;10.38;8.98;;;10.40;99.90;;;;;;5072992;28;20203;-67
2021/10/07 06:19:01;;;;;;;11.38;10.13;;;10.40;99.90;;;;;;5072906;28;20231;-67
2021/10/07 06:21:28;;;;;;;12.93;10.05;;;10.50;99.90;;;;;;5071640;28;20647;-67
2021/10/07 06:23:54;;;;;;;14.98;9.75;;;10.50;99.90;;;;;;5073076;28;20190;-66
2021/10/07 06:26:20;;;;;;;14.45;9.25;;;10.60;99.90;;;;;;5071629;28;20215;-67
2021/10/07 06:28:46;;;;;;;19.42;8.60;;;10.60;99.90;;;;;;5076541;28;20648;-67
2021/10/07 06:31:14;;;;;;;16.15;9.10;;;10.60;99.90;;;;;;5077134;28;20210;-67
2021/10/07 06:33:41;;;;;;;12.55;9.10;;;10.60;99.90;;;;;;5076947;28;20192;-67
2021/10/07 06:36:07;;;;;;;10.27;9.27;;;10.60;99.90;;;;;;5077182;28;20196;-68
2021/10/07 06:38:33;;;;;;;14.80;9.70;;;10.50;99.90;;;;;;5076523;28;20203;-67
2021/10/07 06:41:00;;;;;;;13.95;9.50;;;10.60;99.90;;;;;;5076828;28;20526;-67
2021/10/07 06:43:27;;;;;;;9.77;8.55;;;10.70;99.90;;;;;;5076789;28;20199;-65
2021/10/07 06:45:53;;;;;;;14.30;8.52;;;10.60;99.90;;;;;;5076810;28;20683;-67
2021/10/07 06:48:19;;;;;;;10.52;8.82;;;10.50;99.90;;;;;;5076764;28;20231;-66
2021/10/07 06:50:46;;;;;;;10.55;8.50;;;10.60;99.90;;;;;;5076707;28;20285;-66
2021/10/07 06:53:12;;;;;;;9.85;8.35;;;10.70;99.90;;;;;;5076654;28;20261;-66
2021/10/07 06:55:39;;;;;;;9.98;8.80;;;10.80;99.90;;;;;;5076373;28;20204;-66
2021/10/07 06:58:06;;;;;;;10.52;7.63;;;10.80;99.90;;;;;;5076233;28;20192;-66
2021/10/07 07:00:33;;;;;;;14.52;8.57;;;10.90;99.90;;;;;;5076496;28;20323;-66
2021/10/07 07:02:59;;;;;;;9.90;8.88;;;10.90;99.90;;;;;;5075899;28;20204;-66
2021/10/07 07:05:26;;;;;;;9.52;8.50;;;10.90;99.90;;;;;;5076312;28;20203;-66
2021/10/07 07:07:53;;;;;;;13.65;9.05;;;10.90;99.90;;;;;;5076180;28;20207;-66
2021/10/07 07:10:20;;;;;;;10.00;8.13;;;10.90;99.90;;;;;;5076247;28;20200;-66
2021/10/07 07:12:49;;;;;;;12.02;8.15;;;11.00;99.90;;;;;;5076440;28;20200;-67
2021/10/07 07:15:19;;;;;;;12.32;8.75;;;11.10;99.90;;;;;;5076110;28;20731;-66
2021/10/07 07:17:46;;;;;;;10.38;7.55;;;11.10;99.90;;;;;;5075943;28;20238;-66
2021/10/07 07:20:13;;;;;;;12.20;8.82;;;11.00;99.90;;;;;;5075985;28;20208;-66
2021/10/07 07:22:40;;;;;;;11.68;8.45;;;11.10;99.90;;;;;;5075976;28;20202;-66
2021/10/07 07:25:08;;;;;;;11.38;8.18;;;11.20;99.90;;;;;;5076212;28;20215;-66
2021/10/07 07:27:34;;;;;;;10.73;8.52;;;11.10;99.90;;;;;;5076279;28;20188;-66
2021/10/07 07:30:04;;;;;;;11.52;8.63;;;11.20;99.90;;;;;;5075935;28;20208;-66
2021/10/07 07:32:30;;;;;;;11.85;8.27;;;11.20;99.90;;;;;;5075086;28;20660;-66
2021/10/07 07:34:56;;;;;;;14.90;9.55;;;11.20;99.90;;;;;;5075296;28;20671;-66
2021/10/07 07:37:25;;;;;;;16.05;9.70;;;11.20;99.90;;;;;;5075766;28;20655;-66
2021/10/07 07:39:52;;;;;;;10.80;9.68;;;11.00;99.90;;;;;;5074338;28;20212;-66
2021/10/07 07:42:19;;;;;;;10.05;9.05;;;11.10;99.90;;;;;;5075742;28;20192;-66
2021/10/07 07:44:46;;;;;;;15.75;10.52;;;11.10;99.90;;;;;;5076212;28;20199;-66
2021/10/07 07:47:13;;;;;;;13.82;10.93;;;11.20;99.90;;;;;;5074176;28;20230;-66
2021/10/07 07:49:39;;;;;;;17.17;11.20;;;11.30;99.90;;;;;;5075735;28;20579;-66
2021/10/07 07:52:07;;;;;;;10.80;8.88;;;11.40;99.90;;;;;;5075660;28;20537;-66
2021/10/07 07:54:34;;;;;;;16.55;10.63;;;11.50;99.90;;;;;;5075358;28;20188;-66
2021/10/07 07:57:00;;;;;;;14.02;9.95;;;11.50;99.90;;;;;;5075436;28;20195;-66
2021/10/07 07:59:27;;;;;;;15.27;9.80;;;11.50;99.90;;;;;;5075265;28;20247;-66
2021/10/07 08:01:54;;;;;;;10.95;9.38;;;11.40;99.90;;;;;;5075520;28;20207;-66
2021/10/07 08:04:21;;;;;;;13.73;10.50;;;11.30;99.90;;;;;;5075381;28;20196;-67
2021/10/07 08:06:48;;;;;;;18.88;10.50;;;11.40;99.90;;;;;;5073917;28;20208;-66
2021/10/07 08:09:14;;;;;;;10.05;9.00;;;11.60;99.90;;;;;;5074900;28;20230;-66
2021/10/07 08:11:41;;;;;;;11.80;10.38;;;11.60;99.90;;;;;;5075007;28;20199;-66
2021/10/07 08:14:08;;;;;;;16.40;9.70;;;11.60;99.90;;;;;;5075076;28;20191;-66
2021/10/07 08:16:37;;;;;;;16.63;10.15;;;11.60;99.90;;;;;;5074795;28;20199;-66
2021/10/07 08:19:03;;;;;;;12.20;10.90;;;11.60;99.90;;;;;;5074803;28;20204;-66
2021/10/07 08:21:30;;;;;;;18.17;10.35;;;11.80;99.90;;;;;;5074782;28;20648;-66
2021/10/07 08:23:57;;;;;;;11.00;9.20;;;11.80;99.90;;;;;;5074900;28;20192;-67
2021/10/07 08:26:24;;;;;;;10.88;9.77;;;11.80;99.90;;;;;;5075134;28;20271;-67
2021/10/07 08:28:50;;;;;;;10.73;9.60;;;11.80;99.90;;;;;;5074615;28;20215;-68
2021/10/07 08:31:16;;;;;;;10.18;9.13;;;11.80;99.90;;;;;;5074527;28;20192;-66
2021/10/07 08:33:43;;;;;;;9.90;8.90;;;11.80;99.90;;;;;;5074563;28;20207;-66
2021/10/07 08:36:09;;;;;;;11.40;9.98;;;12.00;99.90;;;;;;5074612;28;20651;-66
2021/10/07 08:38:35;;;;;;;13.15;10.52;;;12.10;99.90;;;;;;5074273;28;20245;-66
2021/10/07 08:41:01;;;;;;;11.73;10.52;;;12.30;99.90;;;;;;5074115;28;20224;-67
2021/10/07 08:43:28;;;;;;;9.27;8.30;;;12.60;99.90;;;;;;5074460;28;20200;-66
2021/10/07 08:45:55;;;;;;;61.33;35.17;;;12.60;99.90;;;;;;5074255;28;20196;-67
2021/10/07 08:48:21;;;;;;;34.53;21.98;;;12.80;99.90;;;;;;5074157;28;20246;-67
2021/10/07 08:50:47;;;;;;;31.83;21.60;;;12.90;99.90;;;;;;5074637;28;20208;-66
2021/10/07 08:53:14;;;;;;;17.92;13.30;;;13.20;99.90;;;;;;5073922;28;20618;-66
2021/10/07 08:55:40;;;;;;;9.20;8.40;;;13.00;99.90;;;;;;5073794;28;20196;-66
2021/10/07 08:58:07;;;;;;;10.30;9.20;;;13.10;99.90;;;;;;5074416;28;20651;-66
2021/10/07 09:00:34;;;;;;;24.63;16.10;;;13.20;99.90;;;;;;5074144;28;20653;-66
2021/10/07 09:03:21;;;;;;;12.70;9.10;;;13.00;99.90;;;;;;5073903;28;21147;-66
2021/10/07 09:05:48;;;;;;;9.87;8.97;;;13.10;99.90;;;;;;5074001;28;20624;-66
2021/10/07 09:08:16;;;;;;;12.73;8.33;;;13.50;99.90;;;;;;5073944;28;20659;-66
2021/10/07 09:10:55;;;;;;;9.70;7.50;;;13.70;99.90;;;;;;5073880;28;20958;-66
2021/10/07 09:13:27;;;;;;;9.37;7.93;;;14.00;99.90;;;;;;5073719;28;21027;-66
2021/10/07 09:15:59;;;;;;;10.33;5.70;;;14.20;99.90;;;;;;5073635;28;20652;-66
2021/10/07 09:18:27;;;;;;;8.37;7.60;;;14.20;99.90;;;;;;5073289;28;20653;-66
2021/10/07 09:20:56;;;;;;;6.30;5.70;;;14.20;99.90;;;;;;5073593;28;20641;-66
2021/10/07 09:23:32;;;;;;;7.00;6.30;;;14.30;99.90;;;;;;5073890;28;20614;-66
2021/10/07 09:26:00;;;;;;;7.87;7.03;;;14.20;99.90;;;;;;5073594;28;20643;-66
2021/10/07 09:28:46;;;;;;;8.30;7.40;;;14.00;99.90;;;;;;5073791;28;21062;-66
2021/10/07 09:31:13;;;;;;;8.90;8.00;;;14.20;99.90;;;;;;5073412;28;21050;-66
2021/10/07 09:33:41;;;;;;;15.50;8.60;;;14.30;99.90;;;;;;5073764;28;20622;-66
2021/10/07 09:36:13;;;;;;;8.10;6.37;;;14.20;99.90;;;;;;5073344;28;20684;-66
2021/10/07 09:38:40;;;;;;;8.00;6.07;;;14.20;99.90;;;;;;5072067;28;20706;-66
2021/10/07 09:41:19;;;;;;;7.57;6.03;;;14.00;99.90;;;;;;5073608;28;20638;-66
2021/10/07 09:44:04;;;;;;;5.97;5.57;;;14.20;99.90;;;;;;5073534;28;20978;-65
2021/10/07 09:46:52;;;;;;;8.40;5.30;;;14.40;99.90;;;;;;5073165;28;20619;-65
2021/10/07 09:49:33;;;;;;;5.93;5.27;;;14.90;99.90;;;;;;5073619;28;20585;-65
2021/10/07 09:52:04;;;;;;;5.30;4.83;;;15.00;99.90;;;;;;5072928;28;20741;-65
2021/10/07 09:54:37;;;;;;;5.87;5.30;;;15.30;99.90;;;;;;5073277;28;20629;-65
2021/10/07 09:57:04;;;;;;;6.00;5.40;;;15.60;99.90;;;;;;5072979;28;20622;-65
2021/10/07 09:59:32;;;;;;;13.47;5.30;;;15.30;99.90;;;;;;5071736;28;21197;-65
2021/10/07 10:01:59;;;;;;;8.57;4.97;;;15.10;99.90;;;;;;5073763;28;20622;-65
2021/10/07 10:04:27;;;;;;;6.00;5.50;;;15.10;99.90;;;;;;5077583;28;20634;-65
2021/10/07 10:06:54;;;;;;;6.83;5.20;;;14.90;99.90;;;;;;5077192;28;20609;-65
2021/10/07 10:09:24;;;;;;;6.70;5.83;;;14.90;99.90;;;;;;5077013;28;20641;-65
2021/10/07 10:11:51;;;;;;;7.70;5.93;;;15.00;99.90;;;;;;5077272;28;20958;-65
2021/10/07 10:14:22;;;;;;;6.53;5.93;;;14.70;99.90;;;;;;5077390;28;20602;-65
2021/10/07 10:16:50;;;;;;;8.27;6.93;;;14.70;99.90;;;;;;5077044;28;20614;-65
2021/10/07 10:19:16;;;;;;;6.80;6.20;;;14.70;99.90;;;;;;5077371;28;21155;-65
2021/10/07 10:21:45;;;;;;;7.70;6.87;;;14.60;99.90;;;;;;5077288;28;20604;-65
2021/10/07 10:24:11;;;;;;;12.43;7.60;;;14.50;99.90;;;;;;5077035;28;20594;-65
2021/10/07 10:26:39;;;;;;;8.70;6.40;;;14.30;99.90;;;;;;5076185;28;20629;-65
2021/10/07 10:29:33;;;;;;;8.60;6.30;;;14.50;99.90;;;;;;5077243;28;20610;-65
2021/10/07 10:32:02;;;;;;;7.20;6.53;;;14.90;99.90;;;;;;5075613;28;20644;-65
2021/10/07 10:34:47;;;;;;;9.50;6.70;;;14.60;99.90;;;;;;5077262;28;20622;-65
2021/10/07 10:37:14;;;;;;;6.60;6.00;;;14.70;99.90;;;;;;5077030;28;20586;-69
2021/10/07 10:39:47;;;;;;;6.70;5.80;;;14.80;99.90;;;;;;5077126;28;20657;-65
2021/10/07 10:42:16;;;;;;;7.60;5.60;;;14.90;99.90;;;;;;5077365;28;20976;-66
2021/10/07 10:44:45;;;;;;;5.20;4.80;;;14.90;99.90;;;;;;5076997;28;20613;-66
2021/10/07 10:47:12;;;;;;;5.30;4.83;;;14.70;99.90;;;;;;5076844;28;20626;-66
2021/10/07 10:49:38;;;;;;;4.93;4.40;;;14.70;99.90;;;;;;5076290;28;20913;-66
2021/10/07 10:52:35;;;;;;;7.13;4.40;;;14.20;99.90;;;;;;5075174;28;20629;-66
2021/10/07 10:55:07;;;;;;;6.13;5.53;;;14.10;99.90;;;;;;5076868;28;20586;-66
2021/10/07 10:57:39;;;;;;;5.60;4.50;;;14.30;99.90;;;;;;5076292;28;20547;-66
2021/10/07 11:00:14;;;;;;;5.20;4.80;;;14.40;99.90;;;;;;5075858;28;20653;-66
2021/10/07 11:02:45;;;;;;;8.73;5.20;;;14.70;99.90;;;;;;5075975;28;20588;-66
2021/10/07 11:05:26;;;;;;;6.03;4.23;;;14.50;99.90;;;;;;5076397;28;20728;-67
2021/10/07 11:08:11;;;;;;;5.57;5.07;;;14.70;99.90;;;;;;5076128;28;21143;-66
2021/10/07 11:10:40;;;;;;;5.90;4.57;;;14.60;99.90;;;;;;5074610;28;21183;-65
2021/10/07 11:13:17;;;;;;;5.57;5.07;;;14.60;99.90;;;;;;5076309;28;20598;-66
2021/10/07 11:15:49;;;;;;;5.93;4.80;;;14.70;99.90;;;;;;5076210;28;20624;-66
2021/10/07 11:18:16;;;;;;;4.53;4.13;;;14.70;99.90;;;;;;5075612;28;20660;-66
2021/10/07 11:20:42;;;;;;;5.63;4.50;;;14.50;99.90;;;;;;5074098;28;20746;-67
2021/10/07 11:23:13;;;;;;;55.77;30.17;;;14.50;99.90;;;;;;5060569;28;20193;-67
2021/10/07 11:25:47;;;;;;;5.10;4.70;;;14.60;99.90;;;;;;5067089;28;20685;-67
2021/10/07 11:28:14;;;;;;;12.77;9.00;;;14.80;99.90;;;;;;5075185;28;20617;-66
2021/10/07 11:30:43;;;;;;;9.70;7.37;;;14.70;99.90;;;;;;5074348;28;20699;-66
2021/10/07 11:33:12;;;;;;;9.27;7.70;;;14.70;99.90;;;;;;5075182;28;20725;-67
2021/10/07 11:35:39;;;;;;;10.43;7.20;;;14.70;99.90;;;;;;5075460;28;20624;-65
2021/10/07 11:38:15;;;;;;;5.23;4.80;;;14.90;99.90;;;;;;5076301;28;22127;-66
2021/10/07 11:40:51;;;;;;;5.00;4.50;;;15.30;99.90;;;;;;5063892;28;20745;-65
2021/10/07 11:43:26;;;;;;;5.30;4.50;;;15.70;99.90;;;;;;5072882;28;20614;-66
2021/10/07 11:45:55;;;;;;;3.00;2.80;;;15.80;99.90;;;;;;5063618;28;20630;-69
2021/10/07 11:48:23;;;;;;;3.53;3.30;;;15.40;99.90;;;;;;5072893;28;20649;-66
2021/10/07 11:51:02;;;;;;;3.00;2.90;;;15.30;99.90;;;;;;5075307;28;20617;-66
2021/10/07 11:53:34;;;;;;;3.73;3.53;;;15.30;99.90;;;;;;5075350;28;20668;-66
2021/10/07 11:56:12;;;;;;;2.60;2.40;;;16.20;99.90;;;;;;5075281;28;20616;-66
2021/10/07 11:58:38;;;;;;;3.33;3.03;;;17.20;99.90;;;;;;5075138;28;21063;-66
2021/10/07 12:01:06;;;;;;;3.37;3.17;;;17.60;99.90;;;;;;5075121;28;20692;-66
2021/10/07 12:03:35;;;;;;;2.80;2.60;;;18.20;99.90;;;;;;5073685;28;20622;-68
2021/10/07 12:06:08;;;;;;;3.10;2.80;;;18.30;99.90;;;;;;5074806;28;20585;-66
2021/10/07 12:08:40;;;;;;;2.57;2.40;;;18.60;99.90;;;;;;5074584;28;20582;-67
2021/10/07 12:11:14;;;;;;;2.57;2.37;;;17.70;99.90;;;;;;5074789;28;20643;-66
2021/10/07 12:13:46;;;;;;;2.37;2.27;;;18.60;99.90;;;;;;5074345;28;21014;-66
2021/10/07 12:16:17;;;;;;;2.10;2.00;;;18.80;99.90;;;;;;5074734;28;20614;-66
2021/10/07 12:18:48;;;;;;;3.17;2.97;;;18.90;99.90;;;;;;5075132;28;20643;-66
2021/10/07 12:21:19;;;;;;;11.20;2.87;;;19.10;99.90;;;;;;5061084;28;20671;-66
2021/10/07 12:24:00;;;;;;;6.20;2.50;;;19.60;99.90;;;;;;5055468;28;20626;-66
2021/10/07 12:26:37;;;;;;;3.40;3.03;;;19.40;99.90;;;;;;5054588;28;20631;-66
2021/10/07 12:29:25;;;;;;;2.30;2.20;;;19.90;99.90;;;;;;5055087;28;20586;-66
2021/10/07 12:32:03;;;;;;;2.67;2.40;;;21.10;99.90;;;;;;5055000;28;20618;-66
2021/10/07 12:34:41;;;;;;;2.30;2.13;;;20.90;99.90;;;;;;5054716;28;20570;-66
2021/10/07 12:37:10;;;;;;;4.60;3.63;;;20.60;99.90;;;;;;5054951;28;20630;-66
2021/10/07 12:39:45;;;;;;;2.90;2.70;;;19.80;99.90;;;;;;5054211;28;20710;-66
2021/10/07 12:42:26;;;;;;;3.00;2.90;;;19.10;99.90;;;;;;5054796;28;20606;-66
2021/10/07 12:44:58;;;;;;;3.17;2.97;;;19.20;99.90;;;;;;5054790;28;21002;-66
2021/10/07 12:47:30;;;;;;;3.53;2.80;;;19.50;99.90;;;;;;5054355;28;20635;-66
2021/10/07 12:50:06;;;;;;;2.57;2.33;;;20.30;99.90;;;;;;5053875;28;20622;-66
2021/10/07 12:52:38;;;;;;;2.50;2.30;;;20.90;99.90;;;;;;5054580;28;20618;-66
2021/10/07 12:55:11;;;;;;;3.10;2.90;;;20.60;99.90;;;;;;5054942;28;20554;-66